createdAt,value
2019-06-07T00:03:32.232Z,16.20
2019-06-07T00:08:37.871Z,17.00
2019-06-07T00:13:43.176Z,16.33
2019-06-07T00:18:48.470Z,16.57
2019-06-07T00:23:54.416Z,16.97
2019-06-07T00:29:02.616Z,15.53
2019-06-07T00:34:10.319Z,18.23
2019-06-07T00:39:20.298Z,17.83
2019-06-07T00:44:23.494Z,16.43
2019-06-07T00:49:40.339Z,17.03
2019-06-07T00:54:37.993Z,16.73
2019-06-07T00:59:43.120Z,15.20
2019-06-07T01:04:48.548Z,15.10
2019-06-07T01:09:53.970Z,13.50
2019-06-07T01:14:59.194Z,14.67
2019-06-07T01:20:06.407Z,14.73
2019-06-07T01:25:13.753Z,14.63
2019-06-07T01:30:23.269Z,15.30
2019-06-07T01:35:26.964Z,16.57
2019-06-07T01:40:33.777Z,15.67
2019-06-07T01:45:39.956Z,15.90
2019-06-07T01:50:45.472Z,17.63
2019-06-07T01:55:51.073Z,17.17
2019-06-07T02:00:56.418Z,18.13
2019-06-07T02:06:01.766Z,21.73
2019-06-07T02:11:07.244Z,19.37
2019-06-07T02:16:14.625Z,18.20
2019-06-07T02:21:23.151Z,17.17
2019-06-07T02:26:30.009Z,18.50
2019-06-07T02:31:39.068Z,19.03
2019-06-07T02:36:41.898Z,19.00
2019-06-07T02:41:47.573Z,21.33
2019-06-07T02:46:52.847Z,18.30
2019-06-07T02:51:58.224Z,19.50
2019-06-07T02:57:05.110Z,19.27
2019-06-07T03:02:10.271Z,19.67
2019-06-07T03:07:17.580Z,19.67
2019-06-07T03:12:23.501Z,20.50
2019-06-07T03:17:47.921Z,21.43
2019-06-07T03:22:53.430Z,21.77
2019-06-07T03:27:58.836Z,22.20
2019-06-07T03:33:04.296Z,21.53
2019-06-07T03:38:09.733Z,20.90
2019-06-07T03:43:14.892Z,22.37
2019-06-07T03:48:20.539Z,23.07
2019-06-07T03:53:29.211Z,21.60
2019-06-07T03:58:44.629Z,22.97
2019-06-07T04:03:46.972Z,24.67
2019-06-07T04:08:48.487Z,22.77
2019-06-07T04:13:53.834Z,22.50
2019-06-07T04:18:59.011Z,22.90
2019-06-07T04:24:04.515Z,23.60
2019-06-07T04:29:32.245Z,23.67
2019-06-07T04:34:16.654Z,24.03
2019-06-07T04:39:23.670Z,22.50
2019-06-07T04:44:28.992Z,22.30
2019-06-07T04:49:39.227Z,22.83
2019-06-07T04:54:45.845Z,21.10
2019-06-07T05:00:33.746Z,22.50
2019-06-07T05:04:56.895Z,21.90
2019-06-07T05:10:02.491Z,22.23
2019-06-07T05:15:08.029Z,22.30
2019-06-07T05:20:14.261Z,22.97
2019-06-07T05:25:19.645Z,22.47
2019-06-07T05:35:44.806Z,24.27
2019-06-07T05:40:50.030Z,24.10
2019-06-07T05:45:55.494Z,25.53
2019-06-07T05:51:00.819Z,22.83
2019-06-07T05:56:06.438Z,21.20
2019-06-07T06:01:41.999Z,20.23
2019-06-07T06:06:19.533Z,22.63
2019-06-07T06:11:42.973Z,22.57
2019-06-07T06:16:31.963Z,21.50
2019-06-07T06:21:38.535Z,19.83
2019-06-07T06:26:51.189Z,22.90
2019-06-07T06:32:39.444Z,20.83
2019-06-07T06:36:58.617Z,21.77
2019-06-07T06:42:04.044Z,21.07
2019-06-07T06:47:09.139Z,21.63
2019-06-07T06:52:14.349Z,20.37
2019-06-07T06:57:21.985Z,20.80
2019-06-07T07:02:28.785Z,18.57
2019-06-07T07:07:36.239Z,19.07
2019-06-07T07:12:42.920Z,20.23
2019-06-07T07:18:00.683Z,17.90
2019-06-07T07:22:57.077Z,19.07
2019-06-07T07:28:02.677Z,20.77
2019-06-07T07:33:07.946Z,20.53
2019-06-07T07:38:15.009Z,19.23
2019-06-07T07:43:22.135Z,19.07
2019-06-07T07:48:27.310Z,19.33
2019-06-07T07:53:48.583Z,17.37
2019-06-07T07:58:41.840Z,19.20
2019-06-07T08:03:48.157Z,17.33
2019-06-07T08:08:57.029Z,17.20
2019-06-07T08:14:05.180Z,16.80
2019-06-07T08:19:14.754Z,17.43
2019-06-07T08:24:20.008Z,16.20
2019-06-07T08:29:43.844Z,16.47
2019-06-07T08:34:35.006Z,18.30
2019-06-07T08:39:41.664Z,17.27
2019-06-07T08:44:47.267Z,17.67
2019-06-07T08:49:59.606Z,15.73
2019-06-07T08:55:04.921Z,16.30
2019-06-07T09:00:42.561Z,16.40
2019-06-07T09:05:20.887Z,17.33
2019-06-07T09:10:26.487Z,15.07
2019-06-07T09:15:31.875Z,14.70
2019-06-07T09:20:51.261Z,15.40
2019-06-07T09:26:07.917Z,15.60
2019-06-07T09:31:10.386Z,15.93
2019-06-07T09:36:14.921Z,15.53
2019-06-07T09:41:21.664Z,15.63
2019-06-07T09:46:27.229Z,14.63
2019-06-07T09:51:32.361Z,15.10
2019-06-07T09:56:39.237Z,15.20
2019-06-07T10:01:44.582Z,15.13
2019-06-07T10:06:50.563Z,15.10
2019-06-07T10:11:58.207Z,16.57
2019-06-07T10:17:03.437Z,16.07
2019-06-07T10:22:09.710Z,15.83
2019-06-07T10:27:15.010Z,15.90
2019-06-07T10:32:20.293Z,16.67
2019-06-07T10:37:25.873Z,15.40
2019-06-07T10:42:34.419Z,16.43
2019-06-07T10:47:39.708Z,15.13
2019-06-07T10:52:44.855Z,14.43
2019-06-07T10:57:50.941Z,14.70
2019-06-07T11:02:56.541Z,13.87
2019-06-07T11:08:01.779Z,13.10
2019-06-07T11:13:08.248Z,13.13
2019-06-07T11:18:14.466Z,12.87
2019-06-07T11:23:21.032Z,13.27
2019-06-07T11:28:28.205Z,11.93
2019-06-07T11:33:33.427Z,12.97
2019-06-07T11:38:40.990Z,13.27
2019-06-07T11:43:48.571Z,12.00
2019-06-07T11:48:53.902Z,12.87
2019-06-07T11:53:59.044Z,11.33
2019-06-07T11:59:04.362Z,11.87
2019-06-07T12:04:09.606Z,9.63
2019-06-07T12:09:16.670Z,11.00
2019-06-07T12:14:21.800Z,9.50
2019-06-07T12:19:27.082Z,9.87
2019-06-07T12:24:32.838Z,8.90
2019-06-07T12:29:38.003Z,7.97
2019-06-07T12:34:45.758Z,7.67
2019-06-07T12:39:51.052Z,7.37
2019-06-07T12:44:57.021Z,8.23
2019-06-07T12:50:02.445Z,6.87
2019-06-07T12:55:07.831Z,6.43
2019-06-07T13:00:16.139Z,6.03
2019-06-07T13:05:23.883Z,6.50
2019-06-07T13:10:32.073Z,6.47
2019-06-07T13:15:37.262Z,5.90
2019-06-07T13:20:44.682Z,5.57
2019-06-07T13:25:50.085Z,5.00
2019-06-07T13:30:55.346Z,4.40
2019-06-07T13:36:00.819Z,5.17
2019-06-07T13:41:05.999Z,4.70
2019-06-07T13:46:13.028Z,5.77
2019-06-07T13:51:19.190Z,5.20
2019-06-07T13:56:26.074Z,5.27
2019-06-07T14:01:32.410Z,5.83
2019-06-07T14:06:37.837Z,5.77
2019-06-07T14:11:50.439Z,6.10
2019-06-07T14:16:51.990Z,5.80
2019-06-07T14:21:57.520Z,6.20
2019-06-07T14:27:09.000Z,6.97
2019-06-07T14:32:14.249Z,6.17
2019-06-07T14:37:19.498Z,7.10
2019-06-07T14:42:25.375Z,7.40
2019-06-07T14:47:32.009Z,6.97
2019-06-07T14:52:37.371Z,7.17
2019-06-07T14:57:44.133Z,7.40
2019-06-07T15:02:50.693Z,7.77
2019-06-07T15:07:56.145Z,7.43
2019-06-07T15:13:01.408Z,7.60
2019-06-07T15:18:07.612Z,7.60
2019-06-07T15:23:13.768Z,8.03
2019-06-07T15:28:19.295Z,8.30
2019-06-07T15:33:24.501Z,7.97
2019-06-07T15:38:31.039Z,7.97
2019-06-07T15:43:37.397Z,8.20
2019-06-07T15:48:45.015Z,7.00
2019-06-07T15:53:50.199Z,7.93
2019-06-07T15:58:55.468Z,7.50
2019-06-07T16:04:00.754Z,7.87
2019-06-07T16:09:08.366Z,7.93
2019-06-07T16:14:14.915Z,6.93
2019-06-07T16:19:20.117Z,7.10
2019-06-07T16:24:25.259Z,7.27
2019-06-07T16:29:30.556Z,7.10
2019-06-07T16:34:37.811Z,6.47
2019-06-07T16:39:42.794Z,6.77
2019-06-07T16:44:50.420Z,6.70
2019-06-07T16:49:55.614Z,7.27
2019-06-07T16:55:01.164Z,6.60
2019-06-07T17:00:07.354Z,7.30
2019-06-07T17:05:14.219Z,6.50
2019-06-07T17:10:20.046Z,7.20
2019-06-07T17:15:28.671Z,7.17
2019-06-07T17:20:33.828Z,7.30
2019-06-07T17:25:39.509Z,6.30
2019-06-07T17:30:46.094Z,7.13
2019-06-07T17:35:52.381Z,7.23
2019-06-07T17:40:57.613Z,6.50
2019-06-07T17:46:02.812Z,7.50
2019-06-07T17:51:09.111Z,7.27
2019-06-07T17:56:14.521Z,7.03
2019-06-07T18:01:21.758Z,7.90
2019-06-07T18:06:27.161Z,7.97
2019-06-07T18:11:32.524Z,8.30
2019-06-07T18:16:38.043Z,8.10
2019-06-07T18:21:44.883Z,7.70
2019-06-07T18:26:50.546Z,12.13
2019-06-07T18:31:56.269Z,14.37
2019-06-07T18:37:01.532Z,15.77
2019-06-07T18:42:06.861Z,18.23
2019-06-07T18:47:12.193Z,17.90
2019-06-07T18:52:21.313Z,20.73
2019-06-07T18:57:26.737Z,19.40
2019-06-07T19:02:31.927Z,20.60
2019-06-07T19:07:37.137Z,21.27
2019-06-07T19:12:43.434Z,19.30
2019-06-07T19:17:49.728Z,19.50
2019-06-07T19:22:56.382Z,21.23
2019-06-07T19:28:01.859Z,20.97
2019-06-07T19:33:07.351Z,20.80
2019-06-07T19:38:12.591Z,22.03
2019-06-07T19:43:17.786Z,21.90
2019-06-07T19:48:22.998Z,21.53
2019-06-07T19:53:28.322Z,22.43
2019-06-07T19:58:33.848Z,22.00
2019-06-07T20:03:40.010Z,22.10
2019-06-07T20:08:45.304Z,20.03
2019-06-07T20:13:50.754Z,20.73
2019-06-07T20:18:56.280Z,19.47
2019-06-07T20:24:17.629Z,20.13
2019-06-07T20:29:24.818Z,19.23
2019-06-07T20:34:16.671Z,19.40
2019-06-07T20:39:22.235Z,18.23
2019-06-07T20:44:27.749Z,18.57
2019-06-07T20:49:33.128Z,18.70
2019-06-07T20:54:38.264Z,17.97
2019-06-07T20:59:43.567Z,18.13
2019-06-07T21:04:48.818Z,17.87
2019-06-07T21:09:54.124Z,17.47
2019-06-07T21:15:02.141Z,16.93
2019-06-07T21:20:08.147Z,17.67
2019-06-07T21:25:13.966Z,16.97
2019-06-07T21:30:19.250Z,18.03
2019-06-07T21:35:26.102Z,19.80
2019-06-07T21:40:33.097Z,19.40
2019-06-07T21:45:38.722Z,17.93
2019-06-07T21:50:46.745Z,18.00
2019-06-07T21:55:51.989Z,17.93
2019-06-07T22:01:23.422Z,16.77
2019-06-07T22:06:28.535Z,18.63
2019-06-07T22:11:34.165Z,19.83
2019-06-07T22:16:40.448Z,17.70
2019-06-07T22:21:59.248Z,17.30
2019-06-07T22:26:52.950Z,16.40
2019-06-07T22:31:58.863Z,16.87
2019-06-07T22:37:05.092Z,16.60
2019-06-07T22:42:11.972Z,17.70
2019-06-07T22:47:18.316Z,15.77
2019-06-07T22:52:23.568Z,14.67
2019-06-07T22:57:30.765Z,14.17
2019-06-07T23:02:36.084Z,11.90
2019-06-07T23:07:41.347Z,12.03
2019-06-07T23:12:46.574Z,13.47
2019-06-07T23:17:51.908Z,10.23
2019-06-07T23:22:57.188Z,11.30
2019-06-07T23:28:02.364Z,11.30
2019-06-07T23:33:07.905Z,10.93
2019-06-07T23:38:13.257Z,10.53
2019-06-07T23:43:19.620Z,9.70
2019-06-07T23:48:25.031Z,9.83
2019-06-07T23:53:30.285Z,9.03
2019-06-07T23:58:35.441Z,9.53
